Time;durP1;ratioP1;P1;durP2;ratioP2;P2;SDS_P1;SDS_P2;PMS_P1;PMS_P2;Temp;Humidity;BMP_temperature;BMP_pressure;BME280_temperature;BME280_humidity;BME280_pressure;Samples;Min_cycle;Max_cycle;Signal;HPM_P1;HPM_P2
2023/04/07 00:01:52;;;;;;;12.60;7.47;;;-0.70;99.90;;;;;;4213052;28;20326;-68
2023/04/07 00:03:53;;;;;;;12.83;7.70;;;-0.70;99.90;;;;;;4212660;28;20822;-63
2023/04/07 00:05:54;;;;;;;12.03;7.47;;;-0.80;99.90;;;;;;4213388;28;20826;-67
2023/04/07 00:07:55;;;;;;;12.60;7.73;;;-0.80;99.90;;;;;;4212551;28;20280;-68
2023/04/07 00:09:56;;;;;;;14.20;8.20;;;-0.70;99.90;;;;;;4213381;28;20280;-68
2023/04/07 00:12:00;;;;;;;12.37;7.90;;;-0.80;99.90;;;;;;4213027;28;20663;-68
2023/04/07 00:14:02;;;;;;;13.80;8.40;;;-0.80;99.90;;;;;;4213488;28;20277;-68
2023/04/07 00:16:03;;;;;;;14.17;8.73;;;-0.80;99.90;;;;;;4212428;28;20273;-66
2023/04/07 00:18:04;;;;;;;13.97;8.70;;;-0.80;99.90;;;;;;4213515;28;20334;-69
2023/04/07 00:20:06;;;;;;;13.73;8.97;;;-0.70;99.90;;;;;;4212586;28;20729;-68
2023/04/07 00:22:07;;;;;;;12.50;8.20;;;-0.70;99.90;;;;;;4213144;28;20252;-62
2023/04/07 00:24:08;;;;;;;12.37;8.07;;;-0.70;99.90;;;;;;4212972;28;20790;-67
2023/04/07 00:26:10;;;;;;;13.20;7.67;;;-0.70;99.90;;;;;;4212576;28;20338;-67
2023/04/07 00:28:11;;;;;;;11.13;7.50;;;-0.70;99.90;;;;;;4212587;28;20377;-62
2023/04/07 00:30:14;;;;;;;12.77;7.67;;;-0.70;99.90;;;;;;4212157;28;20722;-63
2023/04/07 00:32:15;;;;;;;12.07;7.47;;;-0.70;99.90;;;;;;4212866;28;20397;-64
2023/04/07 00:34:16;;;;;;;12.43;7.70;;;-0.70;99.90;;;;;;4212254;28;20261;-67
2023/04/07 00:36:17;;;;;;;10.87;7.40;;;-0.70;99.90;;;;;;4212887;28;20326;-67
2023/04/07 00:38:18;;;;;;;11.90;6.90;;;-0.70;99.90;;;;;;4212171;28;20269;-62
2023/04/07 00:40:19;;;;;;;8.43;5.73;;;-0.70;99.90;;;;;;4213229;28;20318;-62
2023/04/07 00:42:21;;;;;;;9.80;6.47;;;-0.70;99.90;;;;;;4212533;28;20273;-63
2023/04/07 00:44:22;;;;;;;11.97;7.50;;;-0.70;99.90;;;;;;4212943;28;20277;-68
2023/04/07 00:46:23;;;;;;;10.77;7.50;;;-0.70;99.90;;;;;;4211547;28;20322;-63
2023/04/07 00:48:24;;;;;;;11.67;7.70;;;-0.70;99.90;;;;;;4212723;28;20663;-67
2023/04/07 00:50:26;;;;;;;12.13;7.60;;;-0.80;99.90;;;;;;4211965;28;20310;-62
2023/04/07 00:52:28;;;;;;;15.27;8.33;;;-0.70;99.90;;;;;;4195346;28;20969;-66
2023/04/07 00:54:30;;;;;;;13.03;8.23;;;-0.80;99.90;;;;;;4207573;28;20273;-62
2023/04/07 00:56:31;;;;;;;12.13;8.10;;;-0.80;99.90;;;;;;4211447;28;20277;-67
2023/04/07 00:58:32;;;;;;;14.93;9.03;;;-0.80;99.90;;;;;;4212621;28;20291;-63
2023/04/07 01:00:41;;;;;;;14.10;8.83;;;-0.80;99.90;;;;;;4211992;28;20302;-60
2023/04/07 01:02:50;;;;;;;13.80;8.97;;;-0.70;99.90;;;;;;4211280;28;20281;-60
2023/04/07 01:04:55;;;;;;;14.90;9.27;;;-0.70;99.90;;;;;;4211552;28;20264;-61
2023/04/07 01:07:02;;;;;;;13.30;8.77;;;-0.70;99.90;;;;;;4212575;28;20280;-61
2023/04/07 01:09:34;;;;;;;13.70;9.07;;;-0.70;99.90;;;;;;4209802;28;20280;-61
2023/04/07 01:12:06;;;;;;;14.13;8.83;;;-0.70;99.90;;;;;;4211100;28;20362;-60
2023/04/07 01:14:10;;;;;;;12.73;7.93;;;-0.70;99.90;;;;;;4212001;28;20765;-63
2023/04/07 01:16:18;;;;;;;13.13;8.63;;;-0.70;99.90;;;;;;4211915;28;20274;-65
2023/04/07 01:18:31;;;;;;;11.83;7.63;;;-0.70;99.90;;;;;;4212143;28;20361;-61
2023/04/07 01:20:33;;;;;;;12.33;8.33;;;-0.70;99.90;;;;;;4211797;28;20299;-60
2023/04/07 01:22:47;;;;;;;11.97;7.90;;;-0.70;99.90;;;;;;4211905;28;20306;-60
2023/04/07 01:25:18;;;;;;;14.17;8.40;;;-0.70;99.90;;;;;;4209937;28;20257;-60
2023/04/07 01:27:28;;;;;;;10.53;6.17;;;-0.70;99.90;;;;;;4212276;28;20330;-65
2023/04/07 01:29:39;;;;;;;9.00;6.10;;;-0.70;99.90;;;;;;4211315;28;20261;-61
2023/04/07 01:31:41;;;;;;;8.05;5.82;;;-0.70;99.90;;;;;;4212014;28;20326;-60
2023/04/07 01:33:44;;;;;;;11.50;6.30;;;-0.80;99.90;;;;;;4211408;28;20020;-61
2023/04/07 01:35:48;;;;;;;10.67;6.57;;;-0.80;99.90;;;;;;4211789;28;20276;-61
2023/04/07 01:37:50;;;;;;;9.90;6.50;;;-0.80;99.90;;;;;;4211338;28;20774;-61
2023/04/07 01:39:51;;;;;;;13.13;7.73;;;-0.80;99.90;;;;;;4211143;28;20334;-61
2023/04/07 01:41:54;;;;;;;13.63;8.30;;;-0.80;99.90;;;;;;4211862;28;20268;-60
2023/04/07 01:43:57;;;;;;;12.40;8.40;;;-0.80;99.90;;;;;;4210062;28;20342;-62
2023/04/07 01:45:59;;;;;;;18.07;10.47;;;-0.80;99.90;;;;;;4211996;28;20630;-61
2023/04/07 01:48:00;;;;;;;17.07;9.73;;;-0.80;99.90;;;;;;4210890;28;20652;-62
2023/04/07 01:50:04;;;;;;;18.20;9.70;;;-0.70;99.90;;;;;;4211685;28;20303;-63
2023/04/07 01:52:06;;;;;;;18.50;10.93;;;-0.70;99.90;;;;;;4210790;28;20273;-64
2023/04/07 01:54:08;;;;;;;17.47;10.87;;;-0.70;99.90;;;;;;4211983;28;20621;-61
2023/04/07 01:56:09;;;;;;;19.47;11.30;;;-0.70;99.90;;;;;;4210241;28;20792;-59
2023/04/07 01:58:10;;;;;;;17.30;10.13;;;-0.70;99.90;;;;;;4211078;28;20284;-61
2023/04/07 02:00:12;;;;;;;18.07;11.03;;;-0.70;99.90;;;;;;4209802;28;20318;-62
2023/04/07 02:02:14;;;;;;;21.47;11.43;;;-0.70;99.90;;;;;;4211778;28;20272;-60
2023/04/07 02:04:37;;;;;;;19.27;11.23;;;-0.70;99.90;;;;;;4210425;28;20305;-60
2023/04/07 02:06:48;;;;;;;17.00;9.83;;;-0.70;99.90;;;;;;4211770;28;20683;-60
2023/04/07 02:08:56;;;;;;;17.38;10.30;;;-0.70;99.90;;;;;;4210353;28;20273;-62
2023/04/07 02:10:59;;;;;;;18.90;11.17;;;-0.70;99.90;;;;;;4210261;28;20476;-60
2023/04/07 02:13:04;;;;;;;17.07;10.07;;;-0.70;99.90;;;;;;4208885;28;20365;-64
2023/04/07 02:15:08;;;;;;;17.03;10.47;;;-0.80;99.90;;;;;;4211632;28;20310;-60
2023/04/07 02:17:10;;;;;;;19.27;11.83;;;-0.80;99.90;;;;;;4210413;28;20311;-60
2023/04/07 02:19:11;;;;;;;16.20;11.03;;;-0.80;99.90;;;;;;4210624;28;20337;-60
2023/04/07 02:21:14;;;;;;;17.97;10.93;;;-0.80;99.90;;;;;;4210217;28;20325;-60
2023/04/07 02:23:16;;;;;;;18.10;11.10;;;-0.80;99.90;;;;;;4211159;28;20786;-60
2023/04/07 02:25:25;;;;;;;18.13;11.07;;;-0.70;99.90;;;;;;4211009;28;20322;-66
2023/04/07 02:27:26;;;;;;;18.13;10.73;;;-0.70;99.90;;;;;;4209220;28;20301;-60
2023/04/07 02:29:27;;;;;;;16.10;10.17;;;-0.70;99.90;;;;;;4211332;28;20265;-60
2023/04/07 02:31:28;;;;;;;20.07;11.47;;;-0.70;99.90;;;;;;4210407;28;20284;-60
2023/04/07 02:33:29;;;;;;;23.27;12.23;;;-0.70;99.90;;;;;;4211481;28;20272;-60
2023/04/07 02:35:31;;;;;;;20.33;10.83;;;-0.80;99.90;;;;;;4210234;28;20349;-60
2023/04/07 02:37:32;;;;;;;21.97;12.90;;;-0.80;99.90;;;;;;4211276;28;20794;-60
2023/04/07 02:39:33;;;;;;;23.83;13.20;;;-0.80;99.90;;;;;;4210299;28;20269;-61
2023/04/07 02:41:34;;;;;;;25.73;14.40;;;-0.80;99.90;;;;;;4211748;28;20264;-60
2023/04/07 02:43:35;;;;;;;29.40;15.73;;;-0.80;99.90;;;;;;4209996;28;20332;-64
2023/04/07 02:45:36;;;;;;;29.87;16.17;;;-0.70;99.90;;;;;;4211138;28;20272;-65
2023/04/07 02:47:38;;;;;;;31.37;16.90;;;-0.80;99.90;;;;;;4210217;28;20347;-66
2023/04/07 02:49:39;;;;;;;31.23;16.07;;;-0.80;99.90;;;;;;4211093;28;20670;-67
2023/04/07 02:51:40;;;;;;;29.90;16.27;;;-0.80;99.90;;;;;;4210184;28;20261;-68
2023/04/07 02:53:41;;;;;;;31.77;17.50;;;-0.80;99.90;;;;;;4211017;28;20295;-65
2023/04/07 02:55:43;;;;;;;31.03;16.77;;;-0.80;99.90;;;;;;4242441;28;20299;-62
2023/04/07 02:57:44;;;;;;;28.63;16.07;;;-0.80;99.90;;;;;;4210461;28;20268;-61
2023/04/07 02:59:45;;;;;;;29.37;16.17;;;-0.80;99.90;;;;;;4210988;28;20261;-62
2023/04/07 03:01:46;;;;;;;30.87;16.53;;;-0.80;99.90;;;;;;4208365;28;20284;-68
2023/04/07 03:03:47;;;;;;;30.13;16.87;;;-0.80;99.90;;;;;;4210210;28;20690;-62
2023/04/07 03:05:48;;;;;;;29.50;16.63;;;-0.90;99.90;;;;;;4210067;28;20253;-67
2023/04/07 03:07:49;;;;;;;28.53;16.50;;;-0.90;99.90;;;;;;4211450;28;20733;-64
2023/04/07 03:09:51;;;;;;;27.80;15.27;;;-0.90;99.90;;;;;;4210149;28;20733;-63
2023/04/07 03:11:52;;;;;;;30.23;16.47;;;-0.90;99.90;;;;;;4211662;28;20651;-68
2023/04/07 03:13:53;;;;;;;32.17;15.80;;;-0.90;99.90;;;;;;4209644;28;20261;-66
2023/04/07 03:15:54;;;;;;;24.43;14.17;;;-0.90;99.90;;;;;;4211169;28;20261;-67
2023/04/07 03:17:55;;;;;;;30.03;16.20;;;-0.90;99.90;;;;;;4209938;28;20737;-61
2023/04/07 03:19:56;;;;;;;27.93;15.03;;;-1.00;99.90;;;;;;4210950;28;20261;-62
2023/04/07 03:21:57;;;;;;;27.73;15.27;;;-1.00;99.90;;;;;;4210058;28;20265;-61
2023/04/07 03:23:58;;;;;;;26.50;14.07;;;-1.00;99.90;;;;;;4210928;28;20616;-64
2023/04/07 03:25:59;;;;;;;28.73;14.97;;;-1.00;99.90;;;;;;4210419;28;20289;-61
2023/04/07 03:28:01;;;;;;;26.30;14.30;;;-1.00;99.90;;;;;;4210270;28;20249;-60
2023/04/07 03:30:03;;;;;;;26.70;14.17;;;-1.00;99.90;;;;;;4208848;28;20260;-61
2023/04/07 03:32:04;;;;;;;30.90;15.43;;;-1.00;99.90;;;;;;4210396;28;20265;-61
2023/04/07 03:34:05;;;;;;;27.33;15.90;;;-1.00;99.90;;;;;;4213066;28;20321;-61
2023/04/07 03:36:07;;;;;;;28.87;15.57;;;-1.10;99.90;;;;;;4201545;28;20702;-60
2023/04/07 03:38:08;;;;;;;28.43;15.07;;;-1.00;99.90;;;;;;4214212;28;20256;-60
2023/04/07 03:40:10;;;;;;;31.93;17.93;;;-1.00;99.90;;;;;;4212999;28;20268;-61
2023/04/07 03:42:12;;;;;;;32.43;17.10;;;-1.00;99.90;;;;;;4214659;28;20586;-60
2023/04/07 03:44:13;;;;;;;31.27;16.73;;;-1.00;99.90;;;;;;4212923;28;20306;-61
2023/04/07 03:46:14;;;;;;;28.57;14.73;;;-1.00;99.90;;;;;;4213263;28;20329;-60
2023/04/07 03:48:15;;;;;;;29.57;15.90;;;-1.10;99.90;;;;;;4212988;28;20729;-59
2023/04/07 03:50:17;;;;;;;28.97;15.37;;;-1.00;99.90;;;;;;4213968;28;20252;-60
2023/04/07 03:52:18;;;;;;;28.23;15.13;;;-1.00;99.90;;;;;;4212818;28;20733;-61
2023/04/07 03:54:19;;;;;;;25.80;14.77;;;-1.00;99.90;;;;;;4213716;28;20257;-60
2023/04/07 03:56:21;;;;;;;28.80;15.77;;;-1.00;99.90;;;;;;4211745;28;20656;-61
2023/04/07 03:58:22;;;;;;;27.10;15.57;;;-1.00;99.90;;;;;;4213018;28;20272;-60
2023/04/07 04:00:23;;;;;;;27.07;14.53;;;-1.00;99.90;;;;;;4212710;28;20253;-60
2023/04/07 04:02:25;;;;;;;25.73;13.57;;;-1.00;99.90;;;;;;4212692;28;20265;-60
2023/04/07 04:04:26;;;;;;;28.77;14.77;;;-1.00;99.90;;;;;;4212894;28;20353;-60
2023/04/07 04:06:27;;;;;;;25.73;13.67;;;-0.90;99.90;;;;;;4212318;28;20284;-62
2023/04/07 04:08:28;;;;;;;25.53;14.30;;;-0.90;99.90;;;;;;4213723;28;20273;-61
2023/04/07 04:10:29;;;;;;;26.23;13.97;;;-0.90;99.90;;;;;;4212639;28;20696;-61
2023/04/07 04:12:31;;;;;;;26.67;14.33;;;-0.90;99.90;;;;;;4214108;28;20314;-62
2023/04/07 04:14:32;;;;;;;24.80;15.03;;;-0.90;99.90;;;;;;4211088;28;20284;-61
2023/04/07 04:16:34;;;;;;;27.97;15.33;;;-0.90;99.90;;;;;;4210965;28;20284;-61
2023/04/07 04:18:35;;;;;;;29.40;15.60;;;-0.80;99.90;;;;;;4211570;28;20668;-62
2023/04/07 04:20:36;;;;;;;27.97;15.27;;;-0.90;99.90;;;;;;4212513;28;20300;-61
2023/04/07 04:22:37;;;;;;;28.07;15.23;;;-0.90;99.90;;;;;;4211325;28;20269;-67
2023/04/07 04:24:40;;;;;;;28.43;14.63;;;-0.80;99.90;;;;;;4212276;28;20265;-67
2023/04/07 04:26:41;;;;;;;32.03;15.70;;;-0.90;99.90;;;;;;4212226;28;20879;-62
2023/04/07 04:28:42;;;;;;;30.07;15.13;;;-0.90;99.90;;;;;;4210317;28;20284;-60
2023/04/07 04:30:43;;;;;;;26.70;15.23;;;-0.80;99.90;;;;;;4210533;28;20841;-66
2023/04/07 04:32:45;;;;;;;31.03;16.30;;;-0.90;99.90;;;;;;4212370;28;20319;-61
2023/04/07 04:34:46;;;;;;;28.50;15.37;;;-0.80;99.90;;;;;;4195781;28;20273;-60
2023/04/07 04:36:48;;;;;;;30.30;15.63;;;-0.80;99.90;;;;;;4195155;28;20799;-62
2023/04/07 04:38:49;;;;;;;30.37;17.27;;;-0.80;99.90;;;;;;4200525;28;20269;-62
2023/04/07 04:40:50;;;;;;;30.10;15.80;;;-0.80;99.90;;;;;;4211746;27;20288;-61
2023/04/07 04:42:51;;;;;;;30.23;16.10;;;-0.80;99.90;;;;;;4212837;28;20276;-62
2023/04/07 04:44:52;;;;;;;26.90;15.27;;;-0.70;99.90;;;;;;4193535;28;20335;-62
2023/04/07 04:46:54;;;;;;;25.00;13.83;;;-0.70;99.90;;;;;;4196317;28;20302;-61
2023/04/07 04:48:55;;;;;;;29.37;15.13;;;-0.70;99.90;;;;;;4195614;28;20277;-61
2023/04/07 04:50:56;;;;;;;42.70;17.43;;;-0.70;99.90;;;;;;4196055;28;20323;-62
2023/04/07 04:52:57;;;;;;;27.33;14.87;;;-0.70;99.90;;;;;;4211608;28;20257;-63
2023/04/07 04:54:59;;;;;;;27.83;14.53;;;-0.60;99.90;;;;;;4209879;28;20295;-61
2023/04/07 04:57:00;;;;;;;25.87;13.90;;;-0.60;99.90;;;;;;4227219;28;20304;-63
2023/04/07 04:59:03;;;;;;;26.67;15.13;;;-0.60;99.90;;;;;;4229356;28;20264;-65
2023/04/07 05:01:04;;;;;;;31.57;16.20;;;-0.60;99.90;;;;;;4218274;27;20763;-64
2023/04/07 05:03:05;;;;;;;27.77;15.30;;;-0.50;99.90;;;;;;4211913;28;20333;-64
2023/04/07 05:05:06;;;;;;;29.33;15.40;;;-0.50;99.90;;;;;;4212204;28;20273;-59
2023/04/07 05:07:07;;;;;;;31.17;16.83;;;-0.40;99.90;;;;;;4211117;28;20345;-62
2023/04/07 05:09:09;;;;;;;28.60;14.93;;;-0.40;99.90;;;;;;4212466;28;20273;-60
2023/04/07 05:11:11;;;;;;;29.57;15.93;;;-0.40;99.90;;;;;;4211027;28;20358;-62
2023/04/07 05:13:12;;;;;;;28.53;14.90;;;-0.40;99.90;;;;;;4212159;28;20326;-60
2023/04/07 05:15:14;;;;;;;30.70;15.47;;;-0.30;99.90;;;;;;4211187;28;20330;-58
2023/04/07 05:17:15;;;;;;;27.47;14.70;;;-0.40;99.90;;;;;;4211752;28;20322;-62
2023/04/07 05:19:16;;;;;;;29.93;14.50;;;-0.40;99.90;;;;;;4211749;28;20257;-65
2023/04/07 05:21:20;;;;;;;27.77;14.63;;;-0.30;99.90;;;;;;4212302;28;20261;-63
2023/04/07 05:23:21;;;;;;;29.63;14.73;;;-0.30;99.90;;;;;;4211055;28;20330;-62
2023/04/07 05:25:23;;;;;;;27.13;14.67;;;-0.30;99.90;;;;;;4212292;28;20268;-65
2023/04/07 05:27:24;;;;;;;27.07;14.67;;;-0.30;99.90;;;;;;4210490;28;20318;-61
2023/04/07 05:29:25;;;;;;;25.40;14.40;;;-0.30;99.90;;;;;;4211724;28;20268;-59
2023/04/07 05:31:26;;;;;;;27.43;15.80;;;-0.40;99.90;;;;;;4211271;28;20313;-61
2023/04/07 05:33:27;;;;;;;28.30;14.47;;;-0.40;99.90;;;;;;4211003;28;20342;-60
2023/04/07 05:35:28;;;;;;;27.57;15.53;;;-0.30;99.90;;;;;;4211481;28;20782;-59
2023/04/07 05:37:30;;;;;;;29.40;15.00;;;-0.30;99.90;;;;;;4211200;28;20810;-60
2023/04/07 05:39:31;;;;;;;28.67;15.03;;;-0.30;99.90;;;;;;4211881;28;20257;-60
2023/04/07 05:41:32;;;;;;;27.10;15.13;;;-0.20;99.90;;;;;;4210750;28;20261;-65
2023/04/07 05:43:33;;;;;;;25.03;14.70;;;-0.20;99.90;;;;;;4212020;28;20248;-60
2023/04/07 05:45:35;;;;;;;27.70;14.90;;;-0.20;99.90;;;;;;4211071;28;20281;-60
2023/04/07 05:47:36;;;;;;;26.37;14.50;;;-0.20;99.90;;;;;;4211789;28;20302;-62
2023/04/07 05:49:39;;;;;;;26.60;15.27;;;-0.20;99.90;;;;;;4209343;28;20268;-61
2023/04/07 05:51:40;;;;;;;27.10;14.40;;;-0.20;99.90;;;;;;4211701;28;20821;-60
2023/04/07 05:53:41;;;;;;;26.50;13.97;;;-0.20;99.90;;;;;;4210861;28;20318;-60
2023/04/07 05:55:43;;;;;;;27.43;15.10;;;-0.20;99.90;;;;;;4211024;28;20741;-59
2023/04/07 05:57:44;;;;;;;26.93;14.97;;;-0.10;99.90;;;;;;4210512;28;20337;-60
2023/04/07 05:59:45;;;;;;;31.60;16.20;;;-0.10;99.90;;;;;;4211531;28;20310;-60
2023/04/07 06:01:46;;;;;;;31.00;16.43;;;-0.10;99.90;;;;;;4210925;28;20269;-60
2023/04/07 06:03:47;;;;;;;30.03;16.07;;;0.00;99.90;;;;;;4211243;28;20269;-60
2023/04/07 06:05:49;;;;;;;31.07;17.10;;;0.00;99.90;;;;;;4211037;28;20775;-60
2023/04/07 06:07:50;;;;;;;27.27;16.00;;;0.10;99.90;;;;;;4210415;28;20799;-62
2023/04/07 06:09:51;;;;;;;30.83;16.43;;;0.20;99.90;;;;;;4211420;28;20249;-62
2023/04/07 06:11:52;;;;;;;29.60;16.33;;;0.20;99.90;;;;;;4209061;28;20274;-67
2023/04/07 06:13:53;;;;;;;28.00;16.10;;;0.30;99.90;;;;;;4211378;28;20261;-63
2023/04/07 06:15:58;;;;;;;28.03;15.73;;;0.40;99.90;;;;;;4210095;28;20885;-60
2023/04/07 06:17:59;;;;;;;31.67;17.97;;;0.40;99.90;;;;;;4211518;28;20306;-66
2023/04/07 06:20:00;;;;;;;34.00;16.73;;;0.40;99.90;;;;;;4210599;28;20309;-61
2023/04/07 06:22:01;;;;;;;33.50;18.10;;;0.60;99.90;;;;;;4209878;28;20269;-62
2023/04/07 06:24:02;;;;;;;35.47;18.43;;;0.60;99.90;;;;;;4209823;28;20322;-65
2023/04/07 06:26:04;;;;;;;28.97;15.27;;;0.70;99.90;;;;;;4211468;28;20310;-65
2023/04/07 06:28:05;;;;;;;28.00;16.23;;;0.70;99.90;;;;;;4209515;28;20772;-62
2023/04/07 06:30:07;;;;;;;28.17;15.03;;;0.80;99.90;;;;;;4211198;28;20668;-65
2023/04/07 06:32:08;;;;;;;27.43;14.70;;;0.70;99.90;;;;;;4210582;28;20268;-61
2023/04/07 06:34:09;;;;;;;28.43;15.13;;;0.60;99.90;;;;;;4210929;28;20269;-61
2023/04/07 06:36:11;;;;;;;28.70;15.07;;;0.70;99.90;;;;;;4210551;28;20269;-62
2023/04/07 06:38:12;;;;;;;25.33;14.33;;;0.70;99.90;;;;;;4210283;28;20261;-63
2023/04/07 06:40:13;;;;;;;28.63;16.43;;;0.80;99.90;;;;;;4210270;28;20318;-60
2023/04/07 06:42:14;;;;;;;24.27;13.60;;;0.80;99.90;;;;;;4210072;28;20276;-60
2023/04/07 06:44:16;;;;;;;25.97;14.70;;;0.80;99.90;;;;;;4211165;28;20268;-64
2023/04/07 06:46:17;;;;;;;27.33;14.60;;;0.80;99.90;;;;;;4210015;28;20265;-61
2023/04/07 06:48:18;;;;;;;24.87;13.40;;;0.80;99.90;;;;;;4211244;28;20284;-60
2023/04/07 06:50:21;;;;;;;20.47;11.90;;;0.70;99.90;;;;;;4209040;28;20264;-61
2023/04/07 06:52:22;;;;;;;25.53;13.07;;;0.70;99.90;;;;;;4211324;28;20482;-60
2023/04/07 06:54:23;;;;;;;22.00;12.10;;;0.70;99.90;;;;;;4209900;28;20806;-60
2023/04/07 06:56:24;;;;;;;22.17;12.27;;;0.70;99.90;;;;;;4210961;28;20334;-60
2023/04/07 06:58:26;;;;;;;21.00;12.03;;;0.70;99.90;;;;;;4209687;28;20257;-63
2023/04/07 07:00:29;;;;;;;21.37;13.17;;;0.80;99.90;;;;;;4210700;28;20302;-67
2023/04/07 07:02:30;;;;;;;17.73;9.83;;;0.90;99.90;;;;;;4209630;28;20790;-61
2023/04/07 07:04:31;;;;;;;15.27;9.40;;;1.00;99.90;;;;;;4210541;28;20256;-67
2023/04/07 07:06:32;;;;;;;12.17;8.00;;;1.00;99.90;;;;;;4210356;28;20261;-60
2023/04/07 07:08:33;;;;;;;13.77;8.67;;;1.00;99.90;;;;;;4213507;28;20774;-61
2023/04/07 07:10:34;;;;;;;15.13;8.93;;;1.10;99.90;;;;;;4214105;28;20290;-61
2023/04/07 07:12:36;;;;;;;13.47;7.67;;;1.20;99.90;;;;;;4213062;28;20729;-65
2023/04/07 07:14:37;;;;;;;10.40;6.57;;;1.30;99.90;;;;;;4214198;28;20256;-60
2023/04/07 07:16:38;;;;;;;9.67;6.83;;;1.30;99.90;;;;;;4213097;28;20256;-57
2023/04/07 07:18:39;;;;;;;10.20;6.40;;;1.30;99.90;;;;;;4214288;28;20276;-61
2023/04/07 07:20:41;;;;;;;10.43;7.80;;;1.40;99.90;;;;;;4212977;28;20799;-61
2023/04/07 07:22:42;;;;;;;8.57;5.63;;;1.50;99.90;;;;;;4213601;28;20261;-60
2023/04/07 07:24:43;;;;;;;10.10;6.83;;;1.70;99.90;;;;;;4212729;28;20305;-60
2023/04/07 07:26:44;;;;;;;11.70;6.90;;;1.50;99.90;;;;;;4213788;28;20279;-66
2023/04/07 07:28:46;;;;;;;9.63;6.40;;;1.50;99.90;;;;;;4212732;28;21012;-59
2023/04/07 07:30:47;;;;;;;10.77;6.33;;;1.50;99.90;;;;;;4213889;28;20628;-62
2023/04/07 07:32:49;;;;;;;10.13;6.93;;;1.50;99.90;;;;;;4212936;28;20280;-59
2023/04/07 07:34:50;;;;;;;10.33;6.73;;;1.60;99.90;;;;;;4212942;28;20272;-62
2023/04/07 07:36:51;;;;;;;7.17;5.23;;;1.70;99.90;;;;;;4213081;28;20265;-65
2023/04/07 07:38:52;;;;;;;8.63;5.60;;;1.70;99.90;;;;;;4212795;28;20260;-61
2023/04/07 07:40:53;;;;;;;9.37;6.03;;;1.80;99.90;;;;;;4213465;28;20257;-60
2023/04/07 07:42:54;;;;;;;7.67;5.83;;;1.80;99.90;;;;;;4212446;28;20260;-60
2023/04/07 07:44:56;;;;;;;9.47;6.30;;;1.90;99.90;;;;;;4213635;28;20265;-67
2023/04/07 07:46:57;;;;;;;8.13;5.37;;;1.90;99.90;;;;;;4212070;28;20272;-64
2023/04/07 07:48:58;;;;;;;6.67;5.00;;;1.80;99.90;;;;;;4213806;28;20354;-60
2023/04/07 07:51:00;;;;;;;7.33;4.80;;;1.90;99.90;;;;;;4212388;28;20327;-60
2023/04/07 07:53:01;;;;;;;7.83;5.17;;;1.90;99.90;;;;;;4213008;28;20707;-61
2023/04/07 07:55:02;;;;;;;4.77;3.20;;;1.90;99.90;;;;;;4212175;28;20755;-61
2023/04/07 07:57:05;;;;;;;7.10;4.60;;;1.90;99.90;;;;;;4213119;28;20300;-60
2023/04/07 07:59:06;;;;;;;8.17;5.20;;;1.90;99.90;;;;;;4211836;28;20355;-61
2023/04/07 08:01:07;;;;;;;8.17;5.33;;;1.80;99.90;;;;;;4213428;28;20264;-60
2023/04/07 08:03:08;;;;;;;7.87;4.83;;;1.80;99.90;;;;;;4212295;28;20835;-60
2023/04/07 08:05:10;;;;;;;8.87;5.80;;;1.90;99.90;;;;;;4212769;28;20322;-66
2023/04/07 08:07:11;;;;;;;6.70;5.37;;;2.00;99.90;;;;;;4212526;28;20349;-60
2023/04/07 08:09:12;;;;;;;6.27;4.27;;;2.10;99.90;;;;;;4212900;28;20273;-60
2023/04/07 08:11:13;;;;;;;7.27;4.80;;;1.90;99.90;;;;;;4212943;28;20261;-61
2023/04/07 08:13:14;;;;;;;7.73;5.73;;;1.90;99.90;;;;;;4212429;28;20329;-61
2023/04/07 08:15:16;;;;;;;9.67;6.50;;;1.90;99.90;;;;;;4213111;28;20288;-62
2023/04/07 08:17:17;;;;;;;6.93;4.87;;;2.00;99.90;;;;;;4211814;28;20272;-60
2023/04/07 08:19:18;;;;;;;8.23;5.47;;;2.10;99.90;;;;;;4213030;28;20281;-60
2023/04/07 08:21:19;;;;;;;9.37;6.30;;;2.30;99.90;;;;;;4210685;28;20265;-64
2023/04/07 08:23:21;;;;;;;9.40;5.60;;;2.30;99.90;;;;;;4245222;27;20438;-64
2023/04/07 08:25:22;;;;;;;7.60;4.97;;;2.30;99.90;;;;;;4212107;28;20318;-60
2023/04/07 08:27:23;;;;;;;10.23;5.83;;;2.40;99.90;;;;;;4212899;28;20276;-61
2023/04/07 08:29:24;;;;;;;8.53;5.27;;;2.40;99.90;;;;;;4211954;28;20260;-63
2023/04/07 08:31:26;;;;;;;5.83;4.13;;;2.40;99.90;;;;;;4212951;28;20806;-61
2023/04/07 08:33:27;;;;;;;5.43;4.00;;;2.40;99.90;;;;;;4212188;28;20294;-61
2023/04/07 08:35:28;;;;;;;5.27;3.87;;;2.40;99.90;;;;;;4212365;28;20273;-60
2023/04/07 08:37:30;;;;;;;4.67;3.50;;;2.50;99.90;;;;;;4211913;28;20253;-61
2023/04/07 08:39:32;;;;;;;7.37;4.97;;;2.40;99.90;;;;;;4211605;28;20740;-61
2023/04/07 08:41:37;;;;;;;4.10;3.40;;;2.50;99.90;;;;;;4212395;28;20583;-61
2023/04/07 08:43:38;;;;;;;8.10;4.73;;;2.60;99.90;;;;;;4211820;28;20326;-60
2023/04/07 08:45:41;;;;;;;7.20;4.20;;;2.70;99.90;;;;;;4211983;28;20640;-59
2023/04/07 08:47:45;;;;;;;6.50;4.67;;;2.70;99.90;;;;;;4211466;28;20897;-60
2023/04/07 08:49:51;;;;;;;6.13;4.73;;;2.80;99.90;;;;;;4212596;28;20334;-59
2023/04/07 08:51:55;;;;;;;5.73;3.83;;;2.90;99.90;;;;;;4211270;28;20398;-61
2023/04/07 08:54:17;;;;;;;7.70;4.60;;;3.00;99.90;;;;;;4212690;28;20260;-60
2023/04/07 08:56:20;;;;;;;7.13;5.03;;;3.10;99.90;;;;;;4210838;28;20285;-61
2023/04/07 08:58:22;;;;;;;6.83;4.83;;;3.10;99.90;;;;;;4212707;28;20261;-61
2023/04/07 09:00:23;;;;;;;7.57;5.73;;;3.10;99.90;;;;;;4211334;28;20249;-61
2023/04/07 09:02:24;;;;;;;8.17;5.63;;;3.00;99.90;;;;;;4212381;28;20269;-63
2023/04/07 09:04:26;;;;;;;7.80;5.27;;;2.90;99.90;;;;;;4211331;28;20269;-62
2023/04/07 09:06:30;;;;;;;8.40;5.77;;;3.00;99.90;;;;;;4212546;28;20663;-61
2023/04/07 09:08:31;;;;;;;6.07;4.80;;;3.10;99.90;;;;;;4210811;28;20292;-62
2023/04/07 09:10:33;;;;;;;7.37;5.40;;;3.00;99.90;;;;;;4212292;28;20285;-62
2023/04/07 09:12:34;;;;;;;5.70;4.53;;;3.00;99.90;;;;;;4209306;28;20318;-63
2023/04/07 09:14:35;;;;;;;4.87;3.53;;;3.00;99.90;;;;;;4212178;28;20276;-67
2023/04/07 09:16:37;;;;;;;4.53;3.50;;;3.10;99.90;;;;;;4211303;28;20330;-60
2023/04/07 09:18:38;;;;;;;5.37;3.00;;;3.20;99.90;;;;;;4211717;28;20318;-62
2023/04/07 09:21:03;;;;;;;3.90;3.27;;;3.20;99.90;;;;;;4211678;28;20261;-65
2023/04/07 09:23:04;;;;;;;6.40;4.37;;;3.10;99.90;;;;;;4211374;28;20322;-63
2023/04/07 09:25:16;;;;;;;5.60;4.10;;;3.10;99.90;;;;;;4210774;28;20269;-60
2023/04/07 09:27:18;;;;;;;5.37;3.63;;;3.00;99.90;;;;;;4211348;28;20281;-61
2023/04/07 09:29:20;;;;;;;5.00;4.00;;;3.00;99.90;;;;;;4210377;28;20314;-62
2023/04/07 09:31:25;;;;;;;6.40;4.47;;;2.90;99.90;;;;;;4210390;28;20276;-64
2023/04/07 09:33:27;;;;;;;6.73;4.37;;;3.00;99.90;;;;;;4211639;28;20601;-60
2023/04/07 09:35:28;;;;;;;5.70;4.43;;;3.20;99.90;;;;;;4210540;28;20296;-61
2023/04/07 09:37:29;;;;;;;5.90;3.97;;;3.50;99.90;;;;;;4211443;28;20853;-61
2023/04/07 09:39:31;;;;;;;6.67;4.40;;;3.80;99.90;;;;;;4210472;28;20277;-62
2023/04/07 09:41:32;;;;;;;6.10;4.27;;;3.70;99.90;;;;;;4211806;28;20303;-61
2023/04/07 09:43:45;;;;;;;5.33;3.77;;;3.60;99.90;;;;;;4210267;28;20310;-60
2023/04/07 09:45:46;;;;;;;4.53;3.70;;;3.50;99.90;;;;;;4211621;28;20253;-63
2023/04/07 09:47:47;;;;;;;5.63;4.00;;;3.60;99.90;;;;;;4210525;28;20713;-61
2023/04/07 09:49:53;;;;;;;5.47;3.70;;;3.80;99.90;;;;;;4211558;28;20278;-61
2023/04/07 09:51:58;;;;;;;5.30;4.10;;;4.00;99.90;;;;;;4210845;28;20273;-62
2023/04/07 09:54:00;;;;;;;5.47;4.27;;;3.90;99.90;;;;;;4211712;28;20318;-62
2023/04/07 09:56:01;;;;;;;4.33;3.43;;;4.00;99.90;;;;;;4210324;28;20277;-61
2023/04/07 09:58:05;;;;;;;4.97;4.17;;;4.00;99.90;;;;;;4211801;28;20330;-64
2023/04/07 10:00:07;;;;;;;5.30;4.10;;;4.10;99.90;;;;;;4210031;28;20814;-61
2023/04/07 10:02:08;;;;;;;6.77;4.63;;;4.10;99.90;;;;;;4211215;28;20368;-62
2023/04/07 10:04:11;;;;;;;5.93;4.50;;;4.10;99.90;;;;;;4210306;28;20276;-61
2023/04/07 10:06:12;;;;;;;5.70;4.23;;;4.00;99.90;;;;;;4208933;28;20822;-62
2023/04/07 10:08:14;;;;;;;6.20;4.60;;;3.90;99.90;;;;;;4211020;28;20349;-61
2023/04/07 10:10:15;;;;;;;10.47;4.87;;;3.80;99.90;;;;;;4210242;28;20249;-62
2023/04/07 10:12:17;;;;;;;7.57;5.13;;;3.80;99.90;;;;;;4211332;28;20642;-66
2023/04/07 10:14:20;;;;;;;6.33;4.43;;;3.80;99.90;;;;;;4209945;28;20268;-61
2023/04/07 10:16:22;;;;;;;8.20;4.63;;;3.70;99.90;;;;;;4211514;28;20261;-61
2023/04/07 10:18:30;;;;;;;6.77;4.80;;;3.60;99.90;;;;;;4210103;28;20277;-61
2023/04/07 10:20:32;;;;;;;5.00;3.90;;;3.50;99.90;;;;;;4208901;28;20273;-60
2023/04/07 10:22:35;;;;;;;5.63;4.33;;;3.50;99.90;;;;;;4209765;28;20273;-62
2023/04/07 10:24:42;;;;;;;5.87;3.87;;;3.50;99.90;;;;;;4210532;28;20280;-62
2023/04/07 10:26:43;;;;;;;4.97;3.97;;;3.50;99.90;;;;;;4209662;28;20326;-61
2023/04/07 10:28:49;;;;;;;3.50;2.97;;;3.40;99.90;;;;;;4210972;28;20281;-66
2023/04/07 10:30:51;;;;;;;4.67;3.43;;;3.40;99.90;;;;;;4210082;28;20298;-61